Huvudsida
METAR-TAF:

METAR-TAF

Flygplatser :

Bisha, Saudiarabien

latitud: 19-59N, longitud: 042-37E, höjd: 1167 m

Aktuellt väderrapport

Denna rapport gjordes för 34 minuter sedan, klockan 23:00 UTC
Vind 3 kt från nordväst
Temperatur 21°C
Fuktighet 53%
Tryck 1016 hPa
Sikt 10 km eller mer
Få moln på en höjd av 3000 ft

METAR: OEBH 152300Z 31003KT 9999 FEW030 21/11 Q1016 NOSIG

Tid: 02:34 (23:34 UTC)

Väderprognos

Denna rapport gjordes för 12 timmar och 34 minuter sedan, klockan 11:00 UTC
Prognos gäller från 15 kl. 12 UTC till 16 kl. 18 UTC
Vind 13 kt från ost/sydost
Sikt: 7000 m
Få moln på en höjd av 3000 ft
Blir
från 15 kl. 18 UTC till 15 kl. 20 UTC
Vind 8 kt från syd/sydväst

TAF: OEBH 151100Z 1512/1618 12013KT 7000 FEW030 BECMG 1518/1520 20008KT

Aktuella väderrapporter och prognoser från 4000 flygplatser (METAR- och TAF-rapporter).

De tillgängliga stationerna syns som gula och röda prickar på kartan.

För musen över prickarna för att se namnen på stationerna.

Klicka sedan för att få väderrapporter och prognoser.

För att ändra kartan: Klicka på de gröna knapparna med ett svart kors på för att zooma in; den gröna knappen med ett streck på för att zooma ut; eller på de gröna pilarna för angränsande kartor.


METAR-TAF: